Latest Weather Observations for Smithton

IDT60801

Issued at 6:02 am EDT Saturday 10 December 2016 (issued every 30 minutes, with the page automatically refreshed every 10 minutes)

About weather observations | Map of weather stations | Latest weather observations for TAS | Other Formats
Station Details ID: 091292 Name: SMITHTON AERODROME Lat: -40.83 Lon: 145.08 Height: 7.5 m
Data from the previous 72 hours. | See also: Recent months at Smithton
Date/Time
EDT
Temp
°C
App
Temp
°C
Dew
Point
°C
Rel
Hum
%
Delta-T
°C
Wind Press
QNH
hPa
Press
MSL
hPa
Rain since
9am
mm
Dir  Spd
km/h
Gust
km/h
Spd
kts
Gust
kts
10/06:00am 10.3 8.3 8.7 90 0.8 W 9 11 5 6 1020.1 1020.1 0.0
10/05:30am 10.1 8.0 8.2 88 0.9 W 9 13 5 7 1019.9 - 0.0
10/05:00am 10.4 8.3 8.3 87 1.0 W 9 13 5 7 1019.4 - 0.0
10/04:30am 10.1 7.6 8.4 89 0.8 WSW 11 13 6 7 1019.3 - 0.0
10/04:00am 9.5 6.9 7.8 89 0.8 W 11 13 6 7 1019.1 - 0.0
10/03:30am 9.0 5.9 7.1 88 0.9 WSW 13 17 7 9 1019.1 - 0.0
10/03:00am 10.0 6.3 7.9 87 1.0 WSW 17 19 9 10 1019.2 1019.2 0.0
10/02:30am 9.8 6.4 7.6 86 1.0 W 15 19 8 10 1019.4 - 0.0
10/02:00am 10.1 6.8 7.9 86 1.1 W 15 19 8 10 1019.6 - 0.0
10/01:30am 10.1 6.5 8.4 89 0.8 W 17 20 9 11 1019.7 - 0.0
10/01:00am 9.5 7.0 8.1 91 0.7 W 11 13 6 7 1019.8 - 0.0
10/12:30am 8.8 5.7 7.4 91 0.7 W 13 15 7 8 1019.8 - 0.0
10/12:00am 9.6 6.3 8.2 91 0.7 W 15 15 8 8 1019.9 1019.9 0.0
 
Date/Time
EDT
Temp
°C
App
Temp
°C
Dew
Point
°C
Rel
Hum
%
Delta-T
°C
Wind Press
QNH
hPa
Press
MSL
hPa
Rain since
9am
mm
Dir  Spd
km/h
Gust
km/h
Spd
kts
Gust
kts
09/11:30pm 9.8 7.4 8.6 92 0.6 W 11 15 6 8 1020.1 - 0.0
09/11:00pm 9.6 8.0 8.2 91 0.7 W 6 7 3 4 1020.1 - 0.0
09/10:30pm 10.0 6.8 8.4 90 0.8 WSW 15 20 8 11 1020.1 - 0.0
09/10:00pm 10.1 6.8 8.2 88 0.9 W 15 20 8 11 1019.8 - 0.0
09/09:30pm 10.0 6.8 8.3 89 0.8 WSW 15 20 8 11 1019.5 - 0.0
09/09:00pm 9.7 6.5 8.3 91 0.7 WSW 15 20 8 11 1019.2 1019.2 0.0
09/08:30pm 9.8 4.4 7.9 88 0.9 SSW 26 35 14 19 1019.1 - 0.0
09/08:00pm 11.0 6.7 6.9 76 1.9 SW 19 28 10 15 1018.5 - 0.0
09/07:30pm 11.7 5.1 6.0 68 2.7 WSW 30 44 16 24 1018.1 - 0.0
09/07:00pm 12.2 5.5 5.6 64 3.1 SW 30 37 16 20 1017.5 - 0.0
09/06:30pm 12.6 5.2 5.1 60 3.5 SW 33 46 18 25 1017.2 - 0.0
09/06:07pm 13.8 7.4 5.2 56 4.0 SW 28 46 15 25 1016.6 - 0.0
09/06:00pm 13.6 8.0 7.2 65 3.1 SW 26 37 14 20 1016.7 1016.7 0.0
09/05:30pm 12.5 5.3 6.1 65 3.0 SSW 33 48 18 26 1016.6 - 0.0
09/05:10pm 13.7 5.8 4.3 53 4.3 SW 35 54 19 29 1016.1 - 0.0
09/05:00pm 14.2 7.1 5.6 56 4.1 SW 32 44 17 24 1016.1 - 0.0
09/04:30pm 13.2 4.8 5.6 60 3.6 SW 39 54 21 29 1015.9 - 0.0
09/04:00pm 13.9 5.7 4.8 54 4.2 SW 37 50 20 27 1015.3 - 0.0
09/03:43pm 14.2 6.1 5.3 55 4.2 SW 37 61 20 33 1014.8 - 0.0
09/03:30pm 14.2 5.1 6.1 58 3.9 SW 43 57 23 31 1015.2 - 0.0
09/03:00pm 14.2 6.1 5.3 55 4.2 SW 37 59 20 32 1014.7 1014.7 0.0
09/02:54pm 13.7 6.0 5.3 57 3.9 SSW 35 59 19 32 1014.6 - 0.0
09/02:30pm 13.9 4.6 5.0 55 4.1 SW 43 54 23 29 1014.6 - 0.0
09/02:05pm 13.9 4.6 5.0 55 4.1 SW 43 61 23 33 1014.4 - 0.0
09/02:00pm 14.2 5.2 6.3 59 3.8 SW 43 57 23 31 1014.3 - 0.0
09/01:30pm 14.6 4.4 5.1 53 4.5 SW 48 65 26 35 1013.9 - 0.0
09/01:00pm 15.0 6.0 4.7 50 4.8 SW 41 61 22 33 1013.6 - 0.0
09/12:35pm 15.1 5.2 5.0 51 4.7 SSW 46 65 25 35 1013.3 - 0.0
09/12:30pm 14.2 4.6 4.2 51 4.6 SSW 44 57 24 31 1013.4 - 0.0
09/12:00pm 13.3 3.6 3.7 52 4.3 SW 44 65 24 35 1012.9 1012.9 0.0
09/11:40am 13.9 4.6 5.0 55 4.1 SW 43 63 23 34 1012.4 - 0.0
09/11:30am 13.9 4.0 4.8 54 4.2 SW 46 61 25 33 1012.3 - 0.0
09/11:01am 14.0 5.4 6.6 61 3.6 SW 41 59 22 32 1012.0 - 0.0
09/11:00am 13.7 4.7 6.6 62 3.4 SW 43 59 23 32 1012.1 - 0.0
09/10:30am 13.4 3.6 5.1 57 3.9 SW 46 59 25 32 1011.5 - 0.0
09/10:00am 12.9 3.5 5.6 61 3.4 SW 44 70 24 38 1011.4 - 0.0
09/09:30am 12.1 2.9 6.4 68 2.7 SW 44 63 24 34 1011.2 - 0.0
09/09:00am 11.6 2.1 6.9 73 2.2 SW 46 65 25 35 1010.7 1010.7 2.4
09/08:31am 11.1 3.0 5.4 68 2.6 SW 37 57 20 31 1010.2 - 2.4
09/08:30am 11.2 3.2 5.7 69 2.5 SW 37 48 20 26 1010.2 - 2.4
09/08:00am 10.3 1.6 5.9 74 2.0 SW 41 59 22 32 1009.6 - 2.4
09/07:53am 10.6 2.7 6.0 73 2.1 SW 37 57 20 31 1009.5 - 2.4
09/07:30am 9.8 1.8 5.6 75 1.9 SW 37 50 20 27 1009.0 - 2.2
09/07:00am 9.1 1.2 6.0 81 1.4 SW 37 54 20 29 1008.3 - 2.2
09/06:30am 8.6 2.3 5.9 83 1.2 SW 28 35 15 19 1007.7 - 2.2
09/06:00am 8.3 1.6 5.4 82 1.3 SW 30 39 16 21 1007.2 1007.2 2.2
09/05:30am 8.0 2.5 6.0 87 0.9 SW 24 30 13 16 1006.8 - 2.2
09/05:00am 7.7 1.8 5.7 87 0.9 WSW 26 33 14 18 1006.0 - 2.2
09/04:30am 7.6 1.6 6.9 95 0.3 SW 28 37 15 20 1005.5 - 2.2
09/04:05am 8.2 0.2 5.7 84 1.1 SW 37 57 20 31 1005.1 - 2.0
09/04:00am 8.2 0.9 5.5 83 1.2 WSW 33 48 18 26 1004.9 - 1.8
09/03:53am 8.2 1.5 5.5 83 1.2 WSW 30 48 16 26 1004.8 - 1.8
09/03:30am 8.3 0.9 5.2 81 1.4 SW 33 46 18 25 1004.5 - 1.8
09/03:01am 8.7 1.1 5.8 82 1.3 SW 35 54 19 29 1004.3 - 1.6
09/03:00am 8.7 1.1 5.8 82 1.3 SW 35 52 19 28 1004.2 1004.2 1.6
09/02:30am 9.0 1.4 5.9 81 1.4 SW 35 44 19 24 1003.6 - 1.6
09/02:00am 9.1 0.9 6.5 84 1.2 SW 39 54 21 29 1003.4 - 1.6
09/01:31am 8.9 2.1 6.7 86 1.0 SW 32 50 17 27 1003.1 - 1.6
09/01:30am 8.9 1.9 6.7 86 1.0 SW 33 50 18 27 1003.1 - 1.6
09/01:02am 9.2 1.2 5.9 80 1.5 SW 37 56 20 30 1002.5 - 1.4
09/01:00am 9.3 1.0 6.0 80 1.5 SW 39 56 21 30 1002.4 - 1.4
09/12:30am 9.7 1.6 7.1 84 1.2 SW 39 54 21 29 1002.2 - 1.4
09/12:02am 10.1 2.1 7.5 84 1.2 WSW 39 59 21 32 1001.4 - 1.4
09/12:00am 10.0 2.4 7.6 85 1.2 WSW 37 54 20 29 1001.5 1001.5 1.4
 
Date/Time
EDT
Temp
°C
App
Temp
°C
Dew
Point
°C
Rel
Hum
%
Delta-T
°C
Wind Press
QNH
hPa
Press
MSL
hPa
Rain since
9am
mm
Dir  Spd
km/h
Gust
km/h
Spd
kts
Gust
kts
08/11:53pm 9.9 3.3 7.8 87 1.0 SW 32 52 17 28 1001.4 - 1.4
08/11:30pm 10.1 2.7 8.2 88 0.9 SW 37 52 20 28 1001.3 - 1.4
08/11:00pm 9.9 1.3 8.2 89 0.8 SW 43 61 23 33 1000.9 - 1.4
08/10:31pm 10.2 1.7 8.6 90 0.8 SW 43 69 23 37 1000.3 - 1.2
08/10:30pm 10.3 2.2 8.7 90 0.8 SW 41 57 22 31 1000.3 - 1.2
08/10:00pm 10.6 3.2 9.7 94 0.5 SW 39 59 21 32 999.6 - 1.2
08/09:48pm 10.6 2.2 9.8 95 0.4 WSW 44 67 24 36 999.0 - 1.2
08/09:30pm 10.9 2.9 10.4 97 0.3 WSW 43 56 23 30 998.7 - 1.2
08/09:03pm 10.8 3.0 9.6 92 0.6 WSW 41 61 22 33 998.0 - 1.2
08/09:00pm 10.8 3.0 9.6 92 0.6 WSW 41 57 22 31 997.9 997.8 1.2
08/08:39pm 11.2 2.8 9.6 90 0.8 WSW 44 67 24 36 997.3 - 1.0
08/08:30pm 11.4 3.2 9.7 89 0.9 WSW 43 56 23 30 997.0 - 1.0
08/08:00pm 11.7 3.9 9.9 89 0.9 WSW 41 61 22 33 996.1 - 1.0
08/07:55pm 11.8 4.1 10.0 89 0.9 WSW 41 61 22 33 995.9 - 1.0
08/07:30pm 12.2 5.0 10.6 90 0.8 WSW 39 54 21 29 995.0 - 1.0
08/07:02pm 12.1 5.0 10.8 92 0.7 W 39 61 21 33 993.9 - 0.8
08/07:00pm 12.3 5.2 11.0 92 0.7 W 39 52 21 28 994.0 - 0.8
08/06:32pm 12.8 4.8 10.5 86 1.2 W 43 65 23 35 992.8 - 0.4
08/06:30pm 12.8 4.8 10.3 85 1.3 W 43 59 23 32 992.8 - 0.2
08/06:02pm 13.7 5.7 10.3 80 1.8 W 43 65 23 35 992.1 - 0.2
08/06:00pm 13.6 6.0 10.4 81 1.7 W 41 57 22 31 992.2 992.1 0.2
08/05:30pm 12.9 4.8 9.9 82 1.5 W 43 61 23 33 991.7 - 0.2
08/05:00pm 13.6 5.5 10.2 80 1.8 W 43 61 23 33 990.9 - 0.2
08/04:30pm 13.0 5.0 11.1 88 1.0 W 44 63 24 34 990.6 - 0.2
08/04:00pm 14.6 6.9 10.2 75 2.3 W 41 63 22 34 989.9 - 0.2
08/03:31pm 17.0 8.7 11.3 69 3.1 W 46 72 25 39 988.9 - 0.2
08/03:30pm 17.1 9.3 11.8 71 2.9 W 44 57 24 31 989.1 - 0.2
08/03:25pm 16.9 9.4 12.2 74 2.6 W 43 59 23 32 988.8 - 0.2
08/03:03pm 16.5 8.1 12.3 76 2.3 NW 48 67 26 36 988.4 - 0.2
08/03:00pm 16.6 7.9 12.4 76 2.3 NW 50 67 27 36 988.2 988.2 0.2
08/02:31pm 16.3 6.6 11.7 74 2.5 NW 54 72 29 39 989.0 - 0.2
08/02:30pm 16.3 6.2 11.7 74 2.5 NW 56 72 30 39 988.7 - 0.2
08/02:00pm 17.3 7.7 12.0 71 2.9 NW 54 83 29 45 989.2 - 0.2
08/01:30pm 15.7 6.2 9.8 68 3.1 NNW 50 76 27 41 990.0 - 0.2
08/01:25pm 15.9 7.8 10.0 68 3.1 NNW 43 69 23 37 990.0 - 0.2
08/01:24pm 16.1 9.3 10.6 70 2.9 NNW 37 69 20 37 990.2 - 0.2
08/01:00pm 16.7 5.2 10.3 66 3.4 NW 61 83 33 45 990.3 - 0.2
08/12:30pm 17.3 8.0 10.7 65 3.5 NW 50 69 27 37 990.9 - 0.2
08/12:04pm 17.4 9.0 11.0 66 3.4 NW 46 65 25 35 991.1 - 0.2
08/12:00pm 17.8 9.2 11.8 68 3.3 NW 48 65 26 35 991.0 991.0 0.2
08/11:30am 17.5 9.4 12.2 71 2.9 NW 46 65 25 35 991.5 - 0.2
08/11:13am 16.8 8.3 11.9 73 2.7 WNW 48 67 26 36 991.2 - 0.2
08/11:00am 15.9 7.1 12.3 79 2.0 NW 50 65 27 35 991.3 - 0.2
08/10:50am 15.5 5.5 12.8 84 1.5 WNW 57 69 31 37 991.2 - 0.2
08/10:38am 16.5 11.2 15.4 93 0.6 NNW 37 56 20 30 990.9 - 0.2
08/10:30am 16.8 11.3 15.8 94 0.6 NNW 39 54 21 29 990.8 - 0.2
08/10:00am 16.5 11.1 15.9 96 0.4 N 39 50 21 27 990.8 - 0.2
08/09:32am 16.3 11.0 15.3 94 0.6 N 37 61 20 33 990.9 - 0.2
08/09:30am 16.3 11.4 15.3 94 0.6 N 35 52 19 28 991.1 - 0.2
08/09:12am 16.2 12.2 15.2 94 0.6 N 30 48 16 26 991.3 - 0.0
08/09:00am 16.0 11.3 14.9 93 0.6 N 33 46 18 25 991.5 991.4 11.6
08/08:59am 16.0 11.3 14.9 93 0.6 N 33 44 18 24 991.6 - 11.6
08/08:40am 15.4 9.9 14.6 95 0.5 NE 37 50 20 27 992.0 - 11.6
08/08:30am 15.1 9.9 14.5 96 0.3 ENE 35 48 19 26 991.9 - 10.8
08/08:00am 14.9 8.9 14.3 96 0.3 E 39 50 21 27 993.0 - 9.2
08/07:32am 14.7 8.2 14.1 96 0.3 ENE 41 59 22 32 994.3 - 8.2
08/07:30am 14.7 7.8 14.1 96 0.3 ENE 43 59 23 32 994.2 - 8.2
08/07:00am 14.7 7.6 13.9 95 0.4 ENE 44 59 24 32 994.9 - 7.6
08/06:43am 14.6 8.8 13.8 95 0.4 ENE 37 56 20 30 995.8 - 7.2
08/06:30am 14.3 8.0 13.5 95 0.4 ENE 39 54 21 29 996.1 - 6.2
08/06:00am 13.9 7.4 13.0 94 0.5 E 39 52 21 28 997.0 996.9 3.2
08/05:30am 13.9 6.9 12.5 91 0.8 ENE 41 61 22 33 997.5 - 1.6
08/05:00am 13.5 6.6 11.7 89 1.0 ENE 39 57 21 31 997.1 - 0.8
08/04:32am 13.4 6.1 11.5 88 1.0 ENE 41 61 22 33 997.5 - 0.6
08/04:30am 13.4 6.0 11.3 87 1.1 ENE 41 57 22 31 997.6 - 0.6
08/04:11am 13.5 6.9 11.2 86 1.2 E 37 59 20 32 998.3 - 0.4
08/04:00am 13.8 8.1 11.0 83 1.5 E 32 46 17 25 999.5 - 0.2
08/03:43am 14.3 6.9 11.1 81 1.7 E 41 61 22 33 999.2 - 0.0
08/03:30am 14.1 6.7 11.3 83 1.5 ENE 41 56 22 30 999.3 - 0.0
08/03:00am 14.0 7.6 11.9 87 1.1 ENE 37 50 20 27 1000.3 1000.3 0.0
08/02:30am 14.0 8.2 11.5 85 1.3 ENE 33 46 18 25 1001.6 - 0.0
08/02:00am 14.2 8.3 11.2 82 1.6 ENE 33 46 18 25 1001.5 - 0.0
08/01:56am 14.2 8.3 11.0 81 1.7 ENE 33 48 18 26 1001.8 - 0.0
08/01:30am 14.6 9.0 11.4 81 1.7 NE 32 43 17 23 1003.8 - 0.0
08/01:00am 14.6 8.8 11.4 81 1.7 NE 33 46 18 25 1004.2 - 0.0
08/12:30am 14.3 9.1 11.5 83 1.5 NE 30 41 16 22 1005.0 - 0.0
08/12:00am 13.8 10.6 11.8 88 1.1 ENE 20 30 11 16 1005.7 1005.7 0.0
 
Date/Time
EDT
Temp
°C
App
Temp
°C
Dew
Point
°C
Rel
Hum
%
Delta-T
°C
Wind Press
QNH
hPa
Press
MSL
hPa
Rain since
9am
mm
Dir  Spd
km/h
Gust
km/h
Spd
kts
Gust
kts
07/11:30pm 13.6 10.1 12.2 91 0.8 ENE 22 32 12 17 1005.9 - 0.0
07/11:00pm 12.9 10.2 11.8 93 0.6 ENE 17 22 9 12 1006.6 - 0.0
07/10:30pm 12.8 10.5 11.7 93 0.6 ENE 15 20 8 11 1007.3 - 0.0
07/10:00pm 12.1 9.9 10.7 91 0.7 E 13 17 7 9 1007.6 - 0.0
07/09:30pm 13.0 10.9 11.2 89 0.9 ENE 13 17 7 9 1007.8 - 0.0
07/09:00pm 13.7 11.4 11.9 89 1.0 NE 15 19 8 10 1008.3 1008.3 0.0
07/08:30pm 14.3 12.5 12.0 86 1.2 NNE 13 19 7 10 1008.8 - 0.0
07/08:00pm 15.5 13.8 12.3 81 1.7 NNE 13 17 7 9 1009.2 - 0.0
07/07:30pm 16.1 14.0 12.5 79 2.0 N 15 20 8 11 1009.9 - 0.0
07/07:00pm 16.8 14.4 12.5 76 2.4 N 17 22 9 12 1010.1 - 0.0
07/06:30pm 17.4 15.1 11.7 69 3.1 N 15 22 8 12 1010.5 - 0.0
07/06:00pm 18.2 15.1 11.7 66 3.6 NNW 19 20 10 11 1010.8 1010.8 0.0
07/05:30pm 17.4 14.4 11.9 70 3.0 NNW 19 26 10 14 1011.1 - 0.0
07/05:00pm 17.7 14.3 12.6 72 2.8 NNW 22 30 12 16 1011.5 - 0.0
07/04:30pm 17.9 14.3 13.0 73 2.7 NNW 24 32 13 17 1011.9 - 0.0
07/04:00pm 18.1 13.9 12.5 70 3.1 NNW 26 33 14 18 1012.0 - 0.0
07/03:30pm 18.7 14.3 10.5 59 4.4 NW 24 32 13 17 1012.2 - 0.0
07/03:00pm 18.8 14.5 10.6 59 4.4 NW 24 33 13 18 1012.2 1012.2 0.0
07/02:30pm 19.9 15.4 11.4 58 4.7 NW 26 35 14 19 1012.4 - 0.0
07/02:00pm 18.1 13.0 10.5 61 4.1 NW 28 35 15 19 1012.7 - 0.0
07/01:30pm 18.3 13.5 11.6 65 3.7 NW 28 37 15 20 1012.7 - 0.0
07/01:00pm 17.3 13.7 11.8 70 3.0 WNW 22 32 12 17 1013.0 - 0.0
07/12:30pm 17.0 13.0 11.9 72 2.8 NW 24 32 13 17 1013.1 - 0.0
07/12:00pm 18.8 15.8 13.6 72 3.0 NW 22 30 12 16 1013.3 1013.3 0.0
07/11:30am 17.0 14.0 12.5 75 2.5 NW 20 26 11 14 1013.5 - 0.0
07/11:00am 16.4 13.3 12.2 76 2.3 NW 20 26 11 14 1013.5 - 0.0
07/10:30am 15.7 12.7 11.9 78 2.1 WNW 19 26 10 14 1013.6 - 0.0
07/10:00am 16.5 13.3 11.4 72 2.8 NW 19 26 10 14 1013.6 - 0.0
07/09:30am 16.0 13.1 11.0 72 2.7 WNW 17 22 9 12 1013.8 - 0.0
07/09:00am 16.4 13.7 11.8 74 2.5 WNW 17 24 9 13 1013.9 1013.9 0.0
07/08:30am 14.8 13.1 13.5 92 0.7 WNW 15 19 8 10 1013.9 - 0.0
07/08:00am 13.2 12.7 12.7 97 0.3 W 7 11 4 6 1013.8 - 0.0
07/07:30am 11.5 11.9 11.2 98 0.2 CALM 0 0 0 0 1013.7 - 0.0
07/07:00am 8.8 8.4 8.4 97 0.2 CALM 0 0 0 0 1013.7 - 0.0
07/06:30am 7.3 6.6 6.9 97 0.2 CALM 0 0 0 0 1013.5 - 0.0

Other Formats:

Comma delimited format used in spreadsheet applications
http://www.bom.gov.au/fwo/IDT60801/IDT60801.94953.axf

JavaScript Object Notation format (JSON) in row-major order
http://www.bom.gov.au/fwo/IDT60801/IDT60801.94953.json